sensor_id;sensor_type;location;lat;lon;timestamp;P1;durP1;ratioP1;P2;durP2;ratioP2
64826;SDS011;51265;53.972;12.286;2023-06-14T00:00:00;10.25;;;3.75;;
64826;SDS011;51265;53.972;12.286;2023-06-14T00:02:26;8.57;;;3.45;;
64826;SDS011;51265;53.972;12.286;2023-06-14T00:04:53;8.30;;;3.53;;
64826;SDS011;51265;53.972;12.286;2023-06-14T00:07:21;7.40;;;3.63;;
64826;SDS011;51265;53.972;12.286;2023-06-14T00:09:59;5.68;;;3.40;;
64826;SDS011;51265;53.972;12.286;2023-06-14T00:12:25;6.82;;;3.97;;
64826;SDS011;51265;53.972;12.286;2023-06-14T00:14:52;7.30;;;3.70;;
64826;SDS011;51265;53.972;12.286;2023-06-14T00:17:18;10.00;;;4.93;;
64826;SDS011;51265;53.972;12.286;2023-06-14T00:19:44;9.00;;;3.75;;
64826;SDS011;51265;53.972;12.286;2023-06-14T00:22:10;5.95;;;3.78;;
64826;SDS011;51265;53.972;12.286;2023-06-14T00:24:37;9.98;;;3.85;;
64826;SDS011;51265;53.972;12.286;2023-06-14T00:27:04;6.68;;;3.45;;
64826;SDS011;51265;53.972;12.286;2023-06-14T00:29:31;7.72;;;4.05;;
64826;SDS011;51265;53.972;12.286;2023-06-14T00:31:57;7.50;;;3.45;;
64826;SDS011;51265;53.972;12.286;2023-06-14T00:34:26;9.93;;;3.47;;
64826;SDS011;51265;53.972;12.286;2023-06-14T00:36:52;7.28;;;4.03;;
64826;SDS011;51265;53.972;12.286;2023-06-14T00:39:18;9.52;;;4.03;;
64826;SDS011;51265;53.972;12.286;2023-06-14T00:41:44;6.10;;;3.25;;
64826;SDS011;51265;53.972;12.286;2023-06-14T00:44:10;10.10;;;3.88;;
64826;SDS011;51265;53.972;12.286;2023-06-14T00:46:41;9.50;;;3.88;;
64826;SDS011;51265;53.972;12.286;2023-06-14T00:49:07;8.63;;;3.53;;
64826;SDS011;51265;53.972;12.286;2023-06-14T00:51:34;6.55;;;3.85;;
64826;SDS011;51265;53.972;12.286;2023-06-14T00:54:00;8.80;;;3.70;;
64826;SDS011;51265;53.972;12.286;2023-06-14T00:56:26;6.70;;;3.83;;
64826;SDS011;51265;53.972;12.286;2023-06-14T00:58:53;7.97;;;3.60;;
64826;SDS011;51265;53.972;12.286;2023-06-14T01:01:21;9.30;;;3.92;;
64826;SDS011;51265;53.972;12.286;2023-06-14T01:03:47;6.10;;;3.45;;
64826;SDS011;51265;53.972;12.286;2023-06-14T01:09:01;11.07;;;3.63;;
64826;SDS011;51265;53.972;12.286;2023-06-14T01:15:42;8.32;;;3.78;;
64826;SDS011;51265;53.972;12.286;2023-06-14T01:18:10;7.47;;;3.40;;
64826;SDS011;51265;53.972;12.286;2023-06-14T01:20:44;8.55;;;4.22;;
64826;SDS011;51265;53.972;12.286;2023-06-14T01:23:18;9.25;;;4.00;;
64826;SDS011;51265;53.972;12.286;2023-06-14T01:25:46;10.52;;;3.75;;
64826;SDS011;51265;53.972;12.286;2023-06-14T01:28:14;7.88;;;3.70;;
64826;SDS011;51265;53.972;12.286;2023-06-14T01:30:42;7.30;;;3.50;;
64826;SDS011;51265;53.972;12.286;2023-06-14T01:33:12;7.55;;;4.20;;
64826;SDS011;51265;53.972;12.286;2023-06-14T01:35:41;5.47;;;3.75;;
64826;SDS011;51265;53.972;12.286;2023-06-14T01:38:09;9.23;;;3.83;;
64826;SDS011;51265;53.972;12.286;2023-06-14T01:40:35;7.30;;;4.03;;
64826;SDS011;51265;53.972;12.286;2023-06-14T01:43:02;8.90;;;3.90;;
64826;SDS011;51265;53.972;12.286;2023-06-14T01:45:29;10.73;;;4.05;;
64826;SDS011;51265;53.972;12.286;2023-06-14T01:47:57;7.80;;;3.65;;
64826;SDS011;51265;53.972;12.286;2023-06-14T01:50:24;7.07;;;3.67;;
64826;SDS011;51265;53.972;12.286;2023-06-14T01:52:54;9.48;;;3.70;;
64826;SDS011;51265;53.972;12.286;2023-06-14T01:55:20;8.15;;;3.83;;
64826;SDS011;51265;53.972;12.286;2023-06-14T01:57:47;10.30;;;4.28;;
64826;SDS011;51265;53.972;12.286;2023-06-14T02:00:14;10.02;;;4.10;;
64826;SDS011;51265;53.972;12.286;2023-06-14T02:02:41;10.85;;;4.25;;
64826;SDS011;51265;53.972;12.286;2023-06-14T02:05:07;8.65;;;4.13;;
64826;SDS011;51265;53.972;12.286;2023-06-14T02:07:34;7.82;;;4.38;;
64826;SDS011;51265;53.972;12.286;2023-06-14T02:10:00;9.23;;;4.28;;
64826;SDS011;51265;53.972;12.286;2023-06-14T02:12:27;7.15;;;3.60;;
64826;SDS011;51265;53.972;12.286;2023-06-14T02:14:53;6.85;;;4.00;;
64826;SDS011;51265;53.972;12.286;2023-06-14T02:17:20;8.77;;;4.50;;
64826;SDS011;51265;53.972;12.286;2023-06-14T02:19:46;7.82;;;4.22;;
64826;SDS011;51265;53.972;12.286;2023-06-14T02:22:12;7.65;;;3.78;;
64826;SDS011;51265;53.972;12.286;2023-06-14T02:24:41;8.90;;;4.03;;
64826;SDS011;51265;53.972;12.286;2023-06-14T02:27:07;6.43;;;4.03;;
64826;SDS011;51265;53.972;12.286;2023-06-14T02:29:36;7.03;;;3.90;;
64826;SDS011;51265;53.972;12.286;2023-06-14T02:32:04;7.13;;;3.78;;
64826;SDS011;51265;53.972;12.286;2023-06-14T02:34:31;7.75;;;3.38;;
64826;SDS011;51265;53.972;12.286;2023-06-14T02:36:57;7.93;;;4.15;;
64826;SDS011;51265;53.972;12.286;2023-06-14T02:39:23;10.70;;;3.92;;
64826;SDS011;51265;53.972;12.286;2023-06-14T02:41:49;9.68;;;4.18;;
64826;SDS011;51265;53.972;12.286;2023-06-14T02:44:19;7.22;;;3.38;;
64826;SDS011;51265;53.972;12.286;2023-06-14T02:46:45;8.02;;;4.13;;
64826;SDS011;51265;53.972;12.286;2023-06-14T02:49:12;7.90;;;3.65;;
64826;SDS011;51265;53.972;12.286;2023-06-14T02:51:38;8.27;;;4.07;;
64826;SDS011;51265;53.972;12.286;2023-06-14T02:54:04;5.53;;;3.78;;
64826;SDS011;51265;53.972;12.286;2023-06-14T02:56:30;7.82;;;3.63;;
64826;SDS011;51265;53.972;12.286;2023-06-14T02:58:57;8.65;;;3.80;;
64826;SDS011;51265;53.972;12.286;2023-06-14T03:01:25;10.27;;;3.63;;
64826;SDS011;51265;53.972;12.286;2023-06-14T03:04:03;10.25;;;4.25;;
64826;SDS011;51265;53.972;12.286;2023-06-14T03:06:32;8.45;;;4.15;;
64826;SDS011;51265;53.972;12.286;2023-06-14T03:09:00;11.40;;;4.43;;
64826;SDS011;51265;53.972;12.286;2023-06-14T03:11:31;9.73;;;4.47;;
64826;SDS011;51265;53.972;12.286;2023-06-14T03:13:58;7.30;;;3.75;;
64826;SDS011;51265;53.972;12.286;2023-06-14T03:16:26;8.90;;;4.15;;
64826;SDS011;51265;53.972;12.286;2023-06-14T03:18:55;8.02;;;4.03;;
64826;SDS011;51265;53.972;12.286;2023-06-14T03:21:23;7.50;;;3.65;;
64826;SDS011;51265;53.972;12.286;2023-06-14T03:23:57;8.32;;;4.00;;
64826;SDS011;51265;53.972;12.286;2023-06-14T03:26:24;8.00;;;3.63;;
64826;SDS011;51265;53.972;12.286;2023-06-14T03:28:52;9.05;;;4.20;;
64826;SDS011;51265;53.972;12.286;2023-06-14T03:31:20;8.82;;;3.53;;
64826;SDS011;51265;53.972;12.286;2023-06-14T03:33:46;7.60;;;4.38;;
64826;SDS011;51265;53.972;12.286;2023-06-14T03:36:13;14.10;;;4.40;;
64826;SDS011;51265;53.972;12.286;2023-06-14T03:38:40;11.65;;;4.13;;
64826;SDS011;51265;53.972;12.286;2023-06-14T03:41:06;10.60;;;4.10;;
64826;SDS011;51265;53.972;12.286;2023-06-14T03:43:32;11.45;;;4.03;;
64826;SDS011;51265;53.972;12.286;2023-06-14T03:45:59;9.43;;;3.97;;
64826;SDS011;51265;53.972;12.286;2023-06-14T03:48:27;12.63;;;4.63;;
64826;SDS011;51265;53.972;12.286;2023-06-14T03:50:54;8.30;;;3.58;;
64826;SDS011;51265;53.972;12.286;2023-06-14T03:53:21;10.07;;;4.07;;
64826;SDS011;51265;53.972;12.286;2023-06-14T03:55:50;15.27;;;4.00;;
64826;SDS011;51265;53.972;12.286;2023-06-14T03:58:18;8.32;;;3.70;;
64826;SDS011;51265;53.972;12.286;2023-06-14T04:00:45;9.32;;;4.20;;
64826;SDS011;51265;53.972;12.286;2023-06-14T04:03:12;13.45;;;4.75;;
64826;SDS011;51265;53.972;12.286;2023-06-14T04:05:41;12.57;;;4.18;;
64826;SDS011;51265;53.972;12.286;2023-06-14T04:08:08;11.95;;;4.53;;
64826;SDS011;51265;53.972;12.286;2023-06-14T04:10:35;8.07;;;5.00;;
64826;SDS011;51265;53.972;12.286;2023-06-14T04:13:02;17.23;;;6.35;;
64826;SDS011;51265;53.972;12.286;2023-06-14T04:15:30;14.20;;;6.22;;
64826;SDS011;51265;53.972;12.286;2023-06-14T04:17:58;12.57;;;6.32;;
64826;SDS011;51265;53.972;12.286;2023-06-14T04:20:25;13.35;;;6.18;;
64826;SDS011;51265;53.972;12.286;2023-06-14T04:22:52;10.32;;;6.10;;
64826;SDS011;51265;53.972;12.286;2023-06-14T04:25:19;12.73;;;6.45;;
64826;SDS011;51265;53.972;12.286;2023-06-14T04:27:46;11.82;;;6.25;;
64826;SDS011;51265;53.972;12.286;2023-06-14T04:30:13;12.50;;;5.90;;
64826;SDS011;51265;53.972;12.286;2023-06-14T04:32:46;9.45;;;5.65;;
64826;SDS011;51265;53.972;12.286;2023-06-14T04:35:13;9.15;;;4.93;;
64826;SDS011;51265;53.972;12.286;2023-06-14T04:37:42;15.70;;;5.30;;
64826;SDS011;51265;53.972;12.286;2023-06-14T04:40:09;25.88;;;5.80;;
64826;SDS011;51265;53.972;12.286;2023-06-14T04:42:37;10.57;;;4.90;;
64826;SDS011;51265;53.972;12.286;2023-06-14T04:45:06;10.93;;;4.60;;
64826;SDS011;51265;53.972;12.286;2023-06-14T04:47:34;10.52;;;4.70;;
64826;SDS011;51265;53.972;12.286;2023-06-14T04:50:01;9.95;;;4.70;;
64826;SDS011;51265;53.972;12.286;2023-06-14T04:52:30;12.10;;;4.82;;
64826;SDS011;51265;53.972;12.286;2023-06-14T04:54:57;7.22;;;4.50;;
64826;SDS011;51265;53.972;12.286;2023-06-14T04:57:24;6.15;;;4.25;;
64826;SDS011;51265;53.972;12.286;2023-06-14T04:59:53;9.43;;;4.32;;
64826;SDS011;51265;53.972;12.286;2023-06-14T05:02:24;8.85;;;4.55;;
64826;SDS011;51265;53.972;12.286;2023-06-14T05:04:53;7.57;;;4.45;;
64826;SDS011;51265;53.972;12.286;2023-06-14T05:07:20;7.93;;;4.20;;
64826;SDS011;51265;53.972;12.286;2023-06-14T05:09:51;9.88;;;4.35;;
64826;SDS011;51265;53.972;12.286;2023-06-14T05:12:17;8.85;;;4.38;;
64826;SDS011;51265;53.972;12.286;2023-06-14T05:14:45;12.95;;;4.90;;
64826;SDS011;51265;53.972;12.286;2023-06-14T05:17:11;7.57;;;4.00;;
64826;SDS011;51265;53.972;12.286;2023-06-14T05:19:37;10.43;;;4.32;;
64826;SDS011;51265;53.972;12.286;2023-06-14T05:22:04;9.10;;;4.07;;
64826;SDS011;51265;53.972;12.286;2023-06-14T05:24:30;9.65;;;4.85;;
64826;SDS011;51265;53.972;12.286;2023-06-14T05:26:58;10.05;;;5.00;;
64826;SDS011;51265;53.972;12.286;2023-06-14T05:29:24;12.77;;;4.25;;
64826;SDS011;51265;53.972;12.286;2023-06-14T05:31:51;8.73;;;3.97;;
64826;SDS011;51265;53.972;12.286;2023-06-14T05:34:17;8.07;;;4.18;;
64826;SDS011;51265;53.972;12.286;2023-06-14T05:36:44;9.73;;;3.38;;
64826;SDS011;51265;53.972;12.286;2023-06-14T05:39:10;10.05;;;4.20;;
64826;SDS011;51265;53.972;12.286;2023-06-14T05:41:36;12.55;;;4.15;;
64826;SDS011;51265;53.972;12.286;2023-06-14T05:44:03;7.93;;;3.88;;
64826;SDS011;51265;53.972;12.286;2023-06-14T05:46:29;8.50;;;3.60;;
64826;SDS011;51265;53.972;12.286;2023-06-14T05:48:55;8.15;;;4.00;;
64826;SDS011;51265;53.972;12.286;2023-06-14T05:51:22;6.88;;;3.20;;
64826;SDS011;51265;53.972;12.286;2023-06-14T05:53:50;7.32;;;3.13;;
64826;SDS011;51265;53.972;12.286;2023-06-14T05:56:17;6.75;;;3.03;;
64826;SDS011;51265;53.972;12.286;2023-06-14T05:58:44;13.63;;;3.40;;
64826;SDS011;51265;53.972;12.286;2023-06-14T06:01:11;11.15;;;3.42;;
64826;SDS011;51265;53.972;12.286;2023-06-14T06:03:37;9.60;;;3.10;;
64826;SDS011;51265;53.972;12.286;2023-06-14T06:06:03;7.28;;;3.25;;
64826;SDS011;51265;53.972;12.286;2023-06-14T06:08:30;4.93;;;3.17;;
64826;SDS011;51265;53.972;12.286;2023-06-14T06:10:57;10.38;;;3.10;;
64826;SDS011;51265;53.972;12.286;2023-06-14T06:13:23;7.80;;;3.50;;
64826;SDS011;51265;53.972;12.286;2023-06-14T06:15:49;10.02;;;3.13;;
64826;SDS011;51265;53.972;12.286;2023-06-14T06:18:15;7.88;;;3.10;;
64826;SDS011;51265;53.972;12.286;2023-06-14T06:20:42;6.32;;;3.50;;
64826;SDS011;51265;53.972;12.286;2023-06-14T06:23:09;6.85;;;3.65;;
64826;SDS011;51265;53.972;12.286;2023-06-14T06:25:36;8.60;;;3.08;;
64826;SDS011;51265;53.972;12.286;2023-06-14T06:28:02;6.10;;;2.80;;
64826;SDS011;51265;53.972;12.286;2023-06-14T06:30:29;5.03;;;2.72;;
64826;SDS011;51265;53.972;12.286;2023-06-14T06:32:55;10.73;;;3.10;;
64826;SDS011;51265;53.972;12.286;2023-06-14T06:35:21;9.27;;;2.70;;
64826;SDS011;51265;53.972;12.286;2023-06-14T06:37:47;4.30;;;2.30;;
64826;SDS011;51265;53.972;12.286;2023-06-14T06:40:14;4.78;;;2.63;;
64826;SDS011;51265;53.972;12.286;2023-06-14T06:42:41;6.68;;;2.40;;
64826;SDS011;51265;53.972;12.286;2023-06-14T06:45:11;8.25;;;2.78;;
64826;SDS011;51265;53.972;12.286;2023-06-14T06:47:37;5.00;;;2.40;;
64826;SDS011;51265;53.972;12.286;2023-06-14T06:50:03;6.45;;;2.67;;
64826;SDS011;51265;53.972;12.286;2023-06-14T06:52:30;5.22;;;2.38;;
64826;SDS011;51265;53.972;12.286;2023-06-14T06:54:57;4.47;;;2.60;;
64826;SDS011;51265;53.972;12.286;2023-06-14T06:57:23;11.18;;;2.33;;
64826;SDS011;51265;53.972;12.286;2023-06-14T06:59:49;4.65;;;2.47;;
64826;SDS011;51265;53.972;12.286;2023-06-14T07:02:16;7.63;;;2.70;;
64826;SDS011;51265;53.972;12.286;2023-06-14T07:04:44;6.97;;;2.90;;
64826;SDS011;51265;53.972;12.286;2023-06-14T07:07:10;6.00;;;2.70;;
64826;SDS011;51265;53.972;12.286;2023-06-14T07:09:36;5.47;;;2.33;;
64826;SDS011;51265;53.972;12.286;2023-06-14T07:12:02;7.68;;;2.47;;
64826;SDS011;51265;53.972;12.286;2023-06-14T07:14:29;10.80;;;2.92;;
64826;SDS011;51265;53.972;12.286;2023-06-14T07:16:55;6.32;;;2.45;;
64826;SDS011;51265;53.972;12.286;2023-06-14T07:19:22;18.33;;;2.55;;
64826;SDS011;51265;53.972;12.286;2023-06-14T07:21:48;6.07;;;2.55;;
64826;SDS011;51265;53.972;12.286;2023-06-14T07:24:14;6.80;;;2.10;;
64826;SDS011;51265;53.972;12.286;2023-06-14T07:26:41;3.97;;;2.47;;
64826;SDS011;51265;53.972;12.286;2023-06-14T07:29:07;9.68;;;2.42;;
64826;SDS011;51265;53.972;12.286;2023-06-14T07:31:33;10.15;;;2.45;;
64826;SDS011;51265;53.972;12.286;2023-06-14T07:33:59;4.03;;;2.03;;
64826;SDS011;51265;53.972;12.286;2023-06-14T07:36:25;4.38;;;2.28;;
64826;SDS011;51265;53.972;12.286;2023-06-14T07:38:51;7.57;;;2.28;;
64826;SDS011;51265;53.972;12.286;2023-06-14T07:41:18;2.70;;;2.00;;
64826;SDS011;51265;53.972;12.286;2023-06-14T07:43:44;4.95;;;1.80;;
64826;SDS011;51265;53.972;12.286;2023-06-14T07:46:10;5.53;;;2.20;;
64826;SDS011;51265;53.972;12.286;2023-06-14T07:48:37;5.35;;;1.98;;
64826;SDS011;51265;53.972;12.286;2023-06-14T07:51:03;5.15;;;2.10;;
64826;SDS011;51265;53.972;12.286;2023-06-14T07:53:29;4.90;;;2.30;;
64826;SDS011;51265;53.972;12.286;2023-06-14T07:55:56;3.28;;;1.75;;
64826;SDS011;51265;53.972;12.286;2023-06-14T07:58:22;4.50;;;2.00;;
64826;SDS011;51265;53.972;12.286;2023-06-14T08:00:49;12.13;;;2.22;;
64826;SDS011;51265;53.972;12.286;2023-06-14T08:03:15;5.88;;;1.80;;
64826;SDS011;51265;53.972;12.286;2023-06-14T08:05:41;4.35;;;1.80;;
64826;SDS011;51265;53.972;12.286;2023-06-14T08:08:08;5.25;;;2.13;;
64826;SDS011;51265;53.972;12.286;2023-06-14T08:10:34;7.75;;;2.10;;
64826;SDS011;51265;53.972;12.286;2023-06-14T08:13:00;5.10;;;2.10;;
64826;SDS011;51265;53.972;12.286;2023-06-14T08:15:26;6.18;;;2.28;;
64826;SDS011;51265;53.972;12.286;2023-06-14T08:17:53;5.10;;;1.85;;
64826;SDS011;51265;53.972;12.286;2023-06-14T08:20:19;3.83;;;1.92;;
64826;SDS011;51265;53.972;12.286;2023-06-14T08:22:45;4.95;;;2.28;;
64826;SDS011;51265;53.972;12.286;2023-06-14T08:25:13;6.90;;;2.20;;
64826;SDS011;51265;53.972;12.286;2023-06-14T08:27:39;4.78;;;1.83;;
64826;SDS011;51265;53.972;12.286;2023-06-14T08:30:06;5.28;;;2.15;;
64826;SDS011;51265;53.972;12.286;2023-06-14T08:32:34;3.65;;;2.03;;
64826;SDS011;51265;53.972;12.286;2023-06-14T08:35:00;3.47;;;1.77;;
64826;SDS011;51265;53.972;12.286;2023-06-14T08:37:26;9.10;;;1.83;;
64826;SDS011;51265;53.972;12.286;2023-06-14T08:40:27;3.40;;;1.83;;
64826;SDS011;51265;53.972;12.286;2023-06-14T08:42:55;6.18;;;1.67;;
64826;SDS011;51265;53.972;12.286;2023-06-14T08:45:22;6.18;;;1.88;;
64826;SDS011;51265;53.972;12.286;2023-06-14T08:47:49;6.70;;;2.22;;
64826;SDS011;51265;53.972;12.286;2023-06-14T08:50:23;6.82;;;1.83;;
64826;SDS011;51265;53.972;12.286;2023-06-14T08:52:53;4.63;;;1.80;;
64826;SDS011;51265;53.972;12.286;2023-06-14T08:55:23;5.88;;;1.90;;
64826;SDS011;51265;53.972;12.286;2023-06-14T08:57:56;4.40;;;2.08;;
64826;SDS011;51265;53.972;12.286;2023-06-14T09:00:24;5.03;;;1.90;;
64826;SDS011;51265;53.972;12.286;2023-06-14T09:02:51;4.75;;;1.70;;
64826;SDS011;51265;53.972;12.286;2023-06-14T09:05:24;15.77;;;2.27;;
64826;SDS011;51265;53.972;12.286;2023-06-14T09:07:51;5.50;;;1.70;;
64826;SDS011;51265;53.972;12.286;2023-06-14T09:10:18;4.70;;;2.03;;
64826;SDS011;51265;53.972;12.286;2023-06-14T09:12:44;3.67;;;1.85;;
64826;SDS011;51265;53.972;12.286;2023-06-14T09:15:11;2.30;;;1.42;;
64826;SDS011;51265;53.972;12.286;2023-06-14T09:17:38;5.55;;;1.75;;
64826;SDS011;51265;53.972;12.286;2023-06-14T09:20:05;5.75;;;1.85;;
64826;SDS011;51265;53.972;12.286;2023-06-14T09:22:37;8.55;;;1.77;;
64826;SDS011;51265;53.972;12.286;2023-06-14T09:25:04;3.33;;;1.92;;
64826;SDS011;51265;53.972;12.286;2023-06-14T09:27:31;5.68;;;1.70;;
64826;SDS011;51265;53.972;12.286;2023-06-14T09:29:58;3.88;;;1.58;;
64826;SDS011;51265;53.972;12.286;2023-06-14T09:32:24;4.53;;;1.75;;
64826;SDS011;51265;53.972;12.286;2023-06-14T09:34:51;6.68;;;1.92;;
64826;SDS011;51265;53.972;12.286;2023-06-14T09:37:30;3.75;;;1.90;;
64826;SDS011;51265;53.972;12.286;2023-06-14T09:39:57;3.92;;;1.52;;
64826;SDS011;51265;53.972;12.286;2023-06-14T09:42:24;3.63;;;1.40;;
64826;SDS011;51265;53.972;12.286;2023-06-14T09:44:52;5.65;;;2.08;;
64826;SDS011;51265;53.972;12.286;2023-06-14T09:47:22;5.13;;;1.52;;
64826;SDS011;51265;53.972;12.286;2023-06-14T09:49:51;8.43;;;1.80;;
64826;SDS011;51265;53.972;12.286;2023-06-14T09:52:20;5.10;;;1.60;;
64826;SDS011;51265;53.972;12.286;2023-06-14T09:54:48;6.28;;;1.60;;
64826;SDS011;51265;53.972;12.286;2023-06-14T09:57:20;8.40;;;1.73;;
64826;SDS011;51265;53.972;12.286;2023-06-14T09:59:48;4.32;;;2.03;;
64826;SDS011;51265;53.972;12.286;2023-06-14T10:07:48;3.20;;;1.52;;
64826;SDS011;51265;53.972;12.286;2023-06-14T10:10:19;5.43;;;1.90;;
64826;SDS011;51265;53.972;12.286;2023-06-14T10:12:58;3.75;;;1.50;;
64826;SDS011;51265;53.972;12.286;2023-06-14T10:15:32;2.55;;;1.42;;
64826;SDS011;51265;53.972;12.286;2023-06-14T10:18:09;5.22;;;1.80;;
64826;SDS011;51265;53.972;12.286;2023-06-14T10:24:01;4.20;;;1.58;;
64826;SDS011;51265;53.972;12.286;2023-06-14T10:26:32;3.53;;;1.45;;
64826;SDS011;51265;53.972;12.286;2023-06-14T10:29:00;7.32;;;1.70;;
64826;SDS011;51265;53.972;12.286;2023-06-14T10:31:39;4.10;;;1.50;;
64826;SDS011;51265;53.972;12.286;2023-06-14T10:34:22;4.82;;;1.60;;
64826;SDS011;51265;53.972;12.286;2023-06-14T10:37:00;1.63;;;1.20;;
64826;SDS011;51265;53.972;12.286;2023-06-14T10:39:27;5.00;;;1.40;;
64826;SDS011;51265;53.972;12.286;2023-06-14T10:41:54;2.88;;;1.40;;
64826;SDS011;51265;53.972;12.286;2023-06-14T10:50:02;2.53;;;1.20;;
64826;SDS011;51265;53.972;12.286;2023-06-14T10:52:12;2.13;;;1.45;;
64826;SDS011;51265;53.972;12.286;2023-06-14T10:57:32;4.63;;;1.60;;
64826;SDS011;51265;53.972;12.286;2023-06-14T11:00:00;4.30;;;1.58;;
64826;SDS011;51265;53.972;12.286;2023-06-14T11:02:45;4.03;;;1.50;;
64826;SDS011;51265;53.972;12.286;2023-06-14T11:05:31;3.42;;;1.35;;
64826;SDS011;51265;53.972;12.286;2023-06-14T11:10:50;4.15;;;1.27;;
64826;SDS011;51265;53.972;12.286;2023-06-14T11:13:20;3.10;;;1.60;;
64826;SDS011;51265;53.972;12.286;2023-06-14T11:15:53;5.40;;;1.50;;
64826;SDS011;51265;53.972;12.286;2023-06-14T11:18:22;4.78;;;1.20;;
64826;SDS011;51265;53.972;12.286;2023-06-14T11:20:53;3.95;;;1.58;;
64826;SDS011;51265;53.972;12.286;2023-06-14T11:23:19;7.95;;;1.73;;
64826;SDS011;51265;53.972;12.286;2023-06-14T11:25:50;5.07;;;1.70;;
64826;SDS011;51265;53.972;12.286;2023-06-14T11:28:17;3.22;;;1.63;;
64826;SDS011;51265;53.972;12.286;2023-06-14T11:30:45;4.53;;;1.67;;
64826;SDS011;51265;53.972;12.286;2023-06-14T11:33:16;5.18;;;1.90;;
64826;SDS011;51265;53.972;12.286;2023-06-14T11:35:44;4.68;;;1.80;;
64826;SDS011;51265;53.972;12.286;2023-06-14T11:38:11;8.02;;;1.67;;
64826;SDS011;51265;53.972;12.286;2023-06-14T11:40:38;3.03;;;1.58;;
64826;SDS011;51265;53.972;12.286;2023-06-14T11:43:04;4.40;;;1.88;;
64826;SDS011;51265;53.972;12.286;2023-06-14T11:45:31;7.88;;;1.40;;
64826;SDS011;51265;53.972;12.286;2023-06-14T11:47:58;4.93;;;1.65;;
64826;SDS011;51265;53.972;12.286;2023-06-14T11:50:25;3.63;;;1.35;;
64826;SDS011;51265;53.972;12.286;2023-06-14T11:52:55;7.03;;;1.40;;
64826;SDS011;51265;53.972;12.286;2023-06-14T11:55:23;4.90;;;1.45;;
64826;SDS011;51265;53.972;12.286;2023-06-14T11:57:50;5.95;;;1.30;;
64826;SDS011;51265;53.972;12.286;2023-06-14T12:00:16;3.08;;;1.48;;
64826;SDS011;51265;53.972;12.286;2023-06-14T12:02:51;6.35;;;2.10;;
64826;SDS011;51265;53.972;12.286;2023-06-14T12:05:20;3.15;;;1.60;;
64826;SDS011;51265;53.972;12.286;2023-06-14T12:07:47;6.57;;;1.70;;
64826;SDS011;51265;53.972;12.286;2023-06-14T12:10:14;4.28;;;1.50;;
64826;SDS011;51265;53.972;12.286;2023-06-14T12:12:40;2.22;;;1.60;;
64826;SDS011;51265;53.972;12.286;2023-06-14T12:15:08;6.20;;;1.70;;
64826;SDS011;51265;53.972;12.286;2023-06-14T12:17:37;3.60;;;1.50;;
64826;SDS011;51265;53.972;12.286;2023-06-14T12:20:11;4.82;;;1.45;;
64826;SDS011;51265;53.972;12.286;2023-06-14T12:22:57;5.13;;;1.50;;
64826;SDS011;51265;53.972;12.286;2023-06-14T12:25:33;3.60;;;1.52;;
64826;SDS011;51265;53.972;12.286;2023-06-14T12:28:05;2.85;;;1.70;;
64826;SDS011;51265;53.972;12.286;2023-06-14T12:30:33;3.88;;;1.42;;
64826;SDS011;51265;53.972;12.286;2023-06-14T12:33:01;4.88;;;1.50;;
64826;SDS011;51265;53.972;12.286;2023-06-14T12:35:28;4.05;;;1.65;;
64826;SDS011;51265;53.972;12.286;2023-06-14T12:37:55;2.28;;;1.35;;
64826;SDS011;51265;53.972;12.286;2023-06-14T12:40:22;4.82;;;1.73;;
64826;SDS011;51265;53.972;12.286;2023-06-14T12:42:49;4.00;;;1.50;;
64826;SDS011;51265;53.972;12.286;2023-06-14T12:45:15;7.00;;;1.65;;
64826;SDS011;51265;53.972;12.286;2023-06-14T12:47:42;6.00;;;1.45;;
64826;SDS011;51265;53.972;12.286;2023-06-14T12:50:08;8.60;;;1.60;;
64826;SDS011;51265;53.972;12.286;2023-06-14T12:52:34;8.43;;;1.67;;
64826;SDS011;51265;53.972;12.286;2023-06-14T12:55:04;6.88;;;1.60;;
64826;SDS011;51265;53.972;12.286;2023-06-14T12:57:31;5.90;;;1.40;;
64826;SDS011;51265;53.972;12.286;2023-06-14T12:59:59;3.15;;;1.90;;
64826;SDS011;51265;53.972;12.286;2023-06-14T13:02:26;9.73;;;1.77;;
64826;SDS011;51265;53.972;12.286;2023-06-14T13:04:52;3.20;;;1.45;;
64826;SDS011;51265;53.972;12.286;2023-06-14T13:07:19;6.68;;;1.50;;
64826;SDS011;51265;53.972;12.286;2023-06-14T13:09:45;5.78;;;1.50;;
64826;SDS011;51265;53.972;12.286;2023-06-14T13:12:11;5.60;;;1.67;;
64826;SDS011;51265;53.972;12.286;2023-06-14T13:14:38;3.53;;;1.30;;
64826;SDS011;51265;53.972;12.286;2023-06-14T13:17:08;4.03;;;1.95;;
64826;SDS011;51265;53.972;12.286;2023-06-14T13:19:35;6.38;;;1.40;;
64826;SDS011;51265;53.972;12.286;2023-06-14T13:22:02;3.83;;;1.80;;
64826;SDS011;51265;53.972;12.286;2023-06-14T13:24:29;7.03;;;1.70;;
64826;SDS011;51265;53.972;12.286;2023-06-14T13:26:56;2.60;;;1.40;;
64826;SDS011;51265;53.972;12.286;2023-06-14T13:29:23;9.80;;;1.83;;
64826;SDS011;51265;53.972;12.286;2023-06-14T13:31:49;5.10;;;1.40;;
64826;SDS011;51265;53.972;12.286;2023-06-14T13:34:15;4.25;;;1.40;;
64826;SDS011;51265;53.972;12.286;2023-06-14T13:36:42;5.38;;;1.70;;
64826;SDS011;51265;53.972;12.286;2023-06-14T13:39:08;3.25;;;1.50;;
64826;SDS011;51265;53.972;12.286;2023-06-14T13:41:34;5.70;;;1.90;;
64826;SDS011;51265;53.972;12.286;2023-06-14T13:44:01;2.92;;;1.45;;
64826;SDS011;51265;53.972;12.286;2023-06-14T13:46:30;4.18;;;1.67;;
64826;SDS011;51265;53.972;12.286;2023-06-14T13:48:56;6.05;;;1.80;;
64826;SDS011;51265;53.972;12.286;2023-06-14T13:51:23;5.28;;;2.00;;
64826;SDS011;51265;53.972;12.286;2023-06-14T13:53:49;5.38;;;1.70;;
64826;SDS011;51265;53.972;12.286;2023-06-14T13:56:16;3.88;;;1.60;;
64826;SDS011;51265;53.972;12.286;2023-06-14T13:58:44;4.47;;;1.67;;
64826;SDS011;51265;53.972;12.286;2023-06-14T14:01:11;3.58;;;1.30;;
64826;SDS011;51265;53.972;12.286;2023-06-14T14:03:37;2.58;;;1.48;;
64826;SDS011;51265;53.972;12.286;2023-06-14T14:06:04;5.20;;;1.33;;
64826;SDS011;51265;53.972;12.286;2023-06-14T14:08:31;3.55;;;1.63;;
64826;SDS011;51265;53.972;12.286;2023-06-14T14:10:57;3.33;;;1.35;;
64826;SDS011;51265;53.972;12.286;2023-06-14T14:13:24;5.03;;;1.50;;
64826;SDS011;51265;53.972;12.286;2023-06-14T14:15:50;9.02;;;1.67;;
64826;SDS011;51265;53.972;12.286;2023-06-14T14:18:17;5.28;;;1.55;;
64826;SDS011;51265;53.972;12.286;2023-06-14T14:20:43;4.20;;;1.55;;
64826;SDS011;51265;53.972;12.286;2023-06-14T14:23:10;7.57;;;1.70;;
64826;SDS011;51265;53.972;12.286;2023-06-14T14:25:36;16.15;;;1.83;;
64826;SDS011;51265;53.972;12.286;2023-06-14T14:28:02;5.32;;;1.70;;
64826;SDS011;51265;53.972;12.286;2023-06-14T14:30:28;4.80;;;1.52;;
64826;SDS011;51265;53.972;12.286;2023-06-14T14:32:55;4.85;;;1.88;;
64826;SDS011;51265;53.972;12.286;2023-06-14T14:35:21;4.00;;;1.50;;
64826;SDS011;51265;53.972;12.286;2023-06-14T14:37:49;4.32;;;1.48;;
64826;SDS011;51265;53.972;12.286;2023-06-14T14:40:15;3.95;;;1.45;;
64826;SDS011;51265;53.972;12.286;2023-06-14T14:42:41;4.20;;;1.50;;
64826;SDS011;51265;53.972;12.286;2023-06-14T14:45:08;4.35;;;1.45;;
64826;SDS011;51265;53.972;12.286;2023-06-14T14:47:34;2.67;;;1.45;;
64826;SDS011;51265;53.972;12.286;2023-06-14T14:50:00;8.18;;;1.20;;
64826;SDS011;51265;53.972;12.286;2023-06-14T14:52:26;6.97;;;1.60;;
64826;SDS011;51265;53.972;12.286;2023-06-14T14:54:53;2.60;;;1.20;;
64826;SDS011;51265;53.972;12.286;2023-06-14T14:57:19;4.03;;;1.52;;
64826;SDS011;51265;53.972;12.286;2023-06-14T14:59:46;3.92;;;1.30;;
64826;SDS011;51265;53.972;12.286;2023-06-14T15:02:12;3.05;;;1.30;;